Time;durP1;ratioP1;P1;durP2;ratioP2;P2;SDS_P1;SDS_P2;PMS_P1;PMS_P2;Temp;Humidity;BMP_temperature;BMP_pressure;BME280_temperature;BME280_humidity;BME280_pressure;Samples;Min_cycle;Max_cycle;Signal;HPM_P1;HPM_P2
2021/07/08 00:02:08;;;;;;;9.32;8.40;;;;;;;;;;4995624;28;20065;-83
2021/07/08 00:04:37;;;;;;;9.82;8.43;;;;;;;;;;5013339;28;20092;-83
2021/07/08 00:07:03;;;;;;;8.85;7.93;;;;;;;;;;5010571;28;20392;-83
2021/07/08 00:09:28;;;;;;;9.27;8.27;;;;;;;;;;4996407;28;20037;-83
2021/07/08 00:11:54;;;;;;;9.52;8.52;;;;;;;;;;5013651;28;20030;-83
2021/07/08 00:14:19;;;;;;;10.27;9.18;;;;;;;;;;5027107;28;20035;-83
2021/07/08 00:16:45;;;;;;;11.02;9.50;;;;;;;;;;4995963;28;20068;-83
2021/07/08 00:19:10;;;;;;;9.63;8.63;;;;;;;;;;5008937;28;20022;-83
2021/07/08 00:21:36;;;;;;;9.48;8.48;;;;;;;;;;5011572;28;20061;-83
2021/07/08 00:24:03;;;;;;;9.82;8.02;;;;;;;;;;4997036;28;20044;-83
2021/07/08 00:26:28;;;;;;;9.63;8.32;;;;;;;;;;5010868;28;20359;-83
2021/07/08 00:28:54;;;;;;;10.57;8.95;;;;;;;;;;5006557;28;20080;-83
2021/07/08 00:31:20;;;;;;;9.32;8.32;;;;;;;;;;4979304;28;20067;-83
2021/07/08 00:33:46;;;;;;;10.68;8.88;;;;;;;;;;5012246;28;20059;-83
2021/07/08 00:36:12;;;;;;;9.60;8.60;;;;;;;;;;5023028;28;20041;-83
2021/07/08 00:38:38;;;;;;;11.05;8.65;;;;;;;;;;5009616;28;20030;-83
2021/07/08 00:41:03;;;;;;;10.32;8.68;;;;;;;;;;5010910;28;20049;-83
2021/07/08 00:43:30;;;;;;;9.50;8.55;;;;;;;;;;5009827;28;20033;-83
2021/07/08 00:45:59;;;;;;;8.80;7.90;;;;;;;;;;5009074;28;20440;-83
2021/07/08 00:48:25;;;;;;;10.15;9.00;;;;;;;;;;4995309;28;20041;-83
2021/07/08 00:50:52;;;;;;;11.05;9.00;;;;;;;;;;5023196;28;20072;-83
2021/07/08 00:53:21;;;;;;;9.50;8.50;;;;;;;;;;5011671;28;20426;-83
2021/07/08 00:55:55;;;;;;;10.38;8.45;;;;;;;;;;5023222;28;20026;-83
2021/07/08 00:58:20;;;;;;;10.52;8.80;;;;;;;;;;5026558;28;20021;-83
2021/07/08 01:00:46;;;;;;;10.07;9.07;;;;;;;;;;4996124;28;20038;-83
2021/07/08 01:03:13;;;;;;;12.25;9.10;;;;;;;;;;5009082;28;20429;-83
2021/07/08 01:05:49;;;;;;;10.40;9.30;;;;;;;;;;5009918;28;20030;-83
2021/07/08 01:08:15;;;;;;;10.20;8.95;;;;;;;;;;5013094;28;20097;-83
2021/07/08 01:10:42;;;;;;;8.90;8.00;;;;;;;;;;4995585;28;20026;-83
2021/07/08 01:13:07;;;;;;;10.48;8.77;;;;;;;;;;4992079;28;20399;-83
2021/07/08 01:15:33;;;;;;;9.70;8.57;;;;;;;;;;4976159;28;20030;-83
2021/07/08 01:17:59;;;;;;;10.23;8.38;;;;;;;;;;5011728;28;20543;-83
2021/07/08 01:20:27;;;;;;;12.15;9.38;;;;;;;;;;5018717;28;20117;-83
2021/07/08 01:22:59;;;;;;;9.75;8.75;;;;;;;;;;5013767;28;20032;-83
2021/07/08 01:25:35;;;;;;;10.52;9.45;;;;;;;;;;5011351;28;20037;-83
2021/07/08 01:28:02;;;;;;;11.52;8.85;;;;;;;;;;5028337;28;20554;-83
2021/07/08 01:30:28;;;;;;;10.38;9.18;;;;;;;;;;4990769;28;20116;-83
2021/07/08 01:32:56;;;;;;;9.60;8.10;;;;;;;;;;4997112;28;20038;-83
2021/07/08 01:35:22;;;;;;;8.88;7.53;;;;;;;;;;4999129;28;20037;-83
2021/07/08 01:37:47;;;;;;;8.20;6.80;;;;;;;;;;5015334;28;20029;-83
2021/07/08 01:40:15;;;;;;;6.45;5.75;;;;;;;;;;5014369;28;20026;-83
2021/07/08 01:42:40;;;;;;;7.32;6.13;;;;;;;;;;5019448;28;20058;-83
2021/07/08 01:45:07;;;;;;;8.25;6.88;;;;;;;;;;5014385;28;20064;-83
2021/07/08 01:47:33;;;;;;;7.55;6.53;;;;;;;;;;4998425;28;20029;-83
2021/07/08 01:49:59;;;;;;;7.75;6.95;;;;;;;;;;4997993;28;20525;-83
2021/07/08 01:52:25;;;;;;;8.82;7.38;;;;;;;;;;4990338;28;20509;-83
2021/07/08 01:54:50;;;;;;;9.45;7.32;;;;;;;;;;5030856;28;20060;-83
2021/07/08 01:57:16;;;;;;;8.20;7.35;;;;;;;;;;4994644;28;20084;-83
2021/07/08 01:59:41;;;;;;;9.18;7.00;;;;;;;;;;5010619;28;20026;-83
2021/07/08 02:02:07;;;;;;;7.25;6.20;;;;;;;;;;5014480;28;20100;-83
2021/07/08 02:04:32;;;;;;;8.52;7.63;;;;;;;;;;5014189;28;20057;-83
2021/07/08 02:06:58;;;;;;;8.63;6.95;;;;;;;;;;5013798;28;20034;-83
2021/07/08 02:09:23;;;;;;;9.65;7.15;;;;;;;;;;5010519;28;20057;-83
2021/07/08 02:11:49;;;;;;;7.60;6.80;;;;;;;;;;5009359;28;20038;-83
2021/07/08 02:14:14;;;;;;;7.13;6.30;;;;;;;;;;4998576;28;20121;-83
2021/07/08 02:16:40;;;;;;;7.97;6.32;;;;;;;;;;4997715;28;20405;-83
2021/07/08 02:19:07;;;;;;;9.93;6.97;;;;;;;;;;5014315;28;20065;-83
2021/07/08 02:21:33;;;;;;;9.70;7.55;;;;;;;;;;5028894;28;20022;-83
2021/07/08 02:23:59;;;;;;;8.07;7.20;;;;;;;;;;5026407;28;20363;-83
2021/07/08 02:26:24;;;;;;;7.72;6.68;;;;;;;;;;5010430;28;20398;-84
2021/07/08 02:28:51;;;;;;;8.55;6.55;;;;;;;;;;4996869;28;20033;-84
2021/07/08 02:31:17;;;;;;;8.82;6.85;;;;;;;;;;5013606;28;20033;-84
2021/07/08 02:33:42;;;;;;;7.60;6.38;;;;;;;;;;5013382;28;20113;-84
2021/07/08 02:36:08;;;;;;;8.73;7.03;;;;;;;;;;5026553;28;20096;-84
2021/07/08 02:38:34;;;;;;;7.78;6.38;;;;;;;;;;4996722;28;20038;-84
2021/07/08 02:41:00;;;;;;;8.40;6.80;;;;;;;;;;5006249;28;20026;-84
2021/07/08 02:43:26;;;;;;;8.23;6.82;;;;;;;;;;5007773;28;20034;-84
2021/07/08 02:45:51;;;;;;;7.22;6.20;;;;;;;;;;5022430;28;20548;-84
2021/07/08 02:48:20;;;;;;;7.90;6.70;;;;;;;;;;4993977;28;20037;-84
2021/07/08 02:50:48;;;;;;;9.50;6.85;;;;;;;;;;5011892;28;20030;-84
2021/07/08 02:53:13;;;;;;;8.73;7.40;;;;;;;;;;5003711;28;20064;-84
2021/07/08 02:55:40;;;;;;;7.72;6.68;;;;;;;;;;4979880;28;20493;-84
2021/07/08 02:58:06;;;;;;;9.13;7.00;;;;;;;;;;5002387;28;20129;-84
2021/07/08 03:00:32;;;;;;;10.23;7.20;;;;;;;;;;5030331;28;20076;-84
2021/07/08 03:02:58;;;;;;;7.10;6.20;;;;;;;;;;5020393;28;20087;-84
2021/07/08 03:05:23;;;;;;;7.70;5.93;;;;;;;;;;5010538;28;20113;-84
2021/07/08 03:07:50;;;;;;;6.32;5.70;;;;;;;;;;5011427;28;20189;-84
2021/07/08 03:10:17;;;;;;;8.27;6.47;;;;;;;;;;5025644;28;20537;-84
2021/07/08 03:12:43;;;;;;;9.18;6.30;;;;;;;;;;5013425;28;20034;-84
2021/07/08 03:15:10;;;;;;;9.27;6.95;;;;;;;;;;4996429;28;20034;-84
2021/07/08 03:17:37;;;;;;;8.70;6.90;;;;;;;;;;4991076;28;20034;-84
2021/07/08 03:20:11;;;;;;;9.20;6.68;;;;;;;;;;5006260;28;20026;-84
2021/07/08 03:22:38;;;;;;;9.02;7.93;;;;;;;;;;5022322;28;20034;-84
2021/07/08 03:25:05;;;;;;;8.63;6.90;;;;;;;;;;5012083;28;20091;-83
2021/07/08 03:27:30;;;;;;;8.02;6.72;;;;;;;;;;5010369;28;20036;-83
2021/07/08 03:29:57;;;;;;;8.85;6.93;;;;;;;;;;4998535;28;20022;-84
2021/07/08 03:32:22;;;;;;;10.70;6.88;;;;;;;;;;5008726;28;20089;-83
2021/07/08 03:34:47;;;;;;;9.15;7.00;;;;;;;;;;4993494;28;20041;-83
2021/07/08 03:37:13;;;;;;;11.13;8.48;;;;;;;;;;4984599;28;20034;-83
2021/07/08 03:39:38;;;;;;;8.45;7.22;;;;;;;;;;4976161;28;20433;-83
2021/07/08 03:42:04;;;;;;;9.00;6.72;;;;;;;;;;5012431;28;20041;-83
2021/07/08 03:44:29;;;;;;;8.52;6.40;;;;;;;;;;5012597;28;20032;-83
2021/07/08 03:46:55;;;;;;;8.63;6.90;;;;;;;;;;5016031;28;20405;-83
2021/07/08 03:49:20;;;;;;;9.48;7.47;;;;;;;;;;5010477;28;20036;-83
2021/07/08 03:51:45;;;;;;;8.15;7.32;;;;;;;;;;5007650;28;20074;-83
2021/07/08 03:54:11;;;;;;;8.80;7.90;;;;;;;;;;4994590;28;20117;-83
2021/07/08 03:56:36;;;;;;;14.50;9.20;;;;;;;;;;5012356;28;20029;-83
2021/07/08 03:59:02;;;;;;;10.52;9.25;;;;;;;;;;5022660;28;20029;-83
2021/07/08 04:01:27;;;;;;;9.00;8.05;;;;;;;;;;5012870;28;20030;-83
2021/07/08 04:03:53;;;;;;;9.45;7.68;;;;;;;;;;5010802;28;20045;-83
2021/07/08 04:06:18;;;;;;;10.40;7.40;;;;;;;;;;5005575;28;20085;-84
2021/07/08 04:08:44;;;;;;;10.20;7.32;;;;;;;;;;4998126;28;20046;-84
2021/07/08 04:11:10;;;;;;;8.95;7.47;;;;;;;;;;4992989;28;20030;-84
2021/07/08 04:13:35;;;;;;;10.23;7.75;;;;;;;;;;5011118;28;20477;-84
2021/07/08 04:16:01;;;;;;;9.60;8.10;;;;;;;;;;4999670;28;20030;-84
2021/07/08 04:18:26;;;;;;;11.93;9.48;;;;;;;;;;4996173;28;20417;-84
2021/07/08 04:20:52;;;;;;;9.75;8.43;;;;;;;;;;5028461;28;20418;-84
2021/07/08 04:23:18;;;;;;;11.10;8.77;;;;;;;;;;5005934;28;20084;-83
2021/07/08 04:25:43;;;;;;;9.70;7.68;;;;;;;;;;5006502;28;20038;-83
2021/07/08 04:28:10;;;;;;;9.50;8.57;;;;;;;;;;4994780;28;20132;-83
2021/07/08 04:30:37;;;;;;;11.52;8.88;;;;;;;;;;5012300;28;20034;-83
2021/07/08 04:33:03;;;;;;;11.73;9.27;;;;;;;;;;5009452;28;20022;-83
2021/07/08 04:35:36;;;;;;;12.57;9.02;;;;;;;;;;5012649;28;20453;-83
2021/07/08 04:38:01;;;;;;;11.63;9.73;;;;;;;;;;5011489;28;20109;-83
2021/07/08 04:40:27;;;;;;;10.63;9.25;;;;;;;;;;5024679;28;20141;-83
2021/07/08 04:42:53;;;;;;;12.25;10.07;;;;;;;;;;5017151;28;20023;-83
2021/07/08 04:45:19;;;;;;;10.18;9.02;;;;;;;;;;5026119;28;20030;-83
2021/07/08 04:47:46;;;;;;;11.27;9.65;;;;;;;;;;5007535;28;20034;-83
2021/07/08 04:50:22;;;;;;;11.98;10.32;;;;;;;;;;5013231;28;20125;-83
2021/07/08 04:52:49;;;;;;;11.70;8.68;;;;;;;;;;5007569;28;20054;-83
2021/07/08 04:55:21;;;;;;;10.73;8.55;;;;;;;;;;5027356;28;20128;-83
2021/07/08 04:57:48;;;;;;;11.37;9.43;;;;;;;;;;5021692;28;20030;-83
2021/07/08 05:00:15;;;;;;;9.45;8.40;;;;;;;;;;5019595;28;20272;-83
2021/07/08 05:02:42;;;;;;;10.40;8.00;;;;;;;;;;5025064;28;20030;-84
2021/07/08 05:05:10;;;;;;;10.70;8.50;;;;;;;;;;5008810;28;20470;-84
2021/07/08 05:07:36;;;;;;;12.52;10.13;;;;;;;;;;5014313;28;20088;-84
2021/07/08 05:10:04;;;;;;;16.17;10.38;;;;;;;;;;5028928;28;20030;-84
2021/07/08 05:12:38;;;;;;;14.90;10.07;;;;;;;;;;5016888;28;20053;-84
2021/07/08 05:15:09;;;;;;;11.20;9.38;;;;;;;;;;5023823;28;20470;-84
2021/07/08 05:17:35;;;;;;;12.50;9.23;;;;;;;;;;5022999;28;20049;-84
2021/07/08 05:20:00;;;;;;;13.02;10.18;;;;;;;;;;5031794;28;20026;-84
2021/07/08 05:22:26;;;;;;;12.27;9.57;;;;;;;;;;5016003;28;20036;-84
2021/07/08 05:24:52;;;;;;;10.20;8.52;;;;;;;;;;5014413;28;20056;-84
2021/07/08 05:27:17;;;;;;;12.65;9.95;;;;;;;;;;5014281;28;20460;-84
2021/07/08 05:29:44;;;;;;;13.85;11.10;;;;;;;;;;5015322;28;20104;-84
2021/07/08 05:32:10;;;;;;;12.95;9.65;;;;;;;;;;5017156;28;20026;-84
2021/07/08 05:34:35;;;;;;;12.85;10.35;;;;;;;;;;5016138;28;21713;-84
2021/07/08 05:37:01;;;;;;;11.88;9.95;;;;;;;;;;5030069;28;20083;-84
2021/07/08 05:39:26;;;;;;;11.80;9.80;;;;;;;;;;5014358;28;20083;-84
2021/07/08 05:41:51;;;;;;;14.07;10.85;;;;;;;;;;5012156;28;20038;-84
2021/07/08 05:44:17;;;;;;;13.15;10.73;;;;;;;;;;5028759;28;20176;-84
2021/07/08 05:46:42;;;;;;;16.77;10.82;;;;;;;;;;5011604;28;20037;-84
2021/07/08 05:49:08;;;;;;;14.38;10.80;;;;;;;;;;5014242;28;20026;-84
2021/07/08 05:51:34;;;;;;;13.18;11.10;;;;;;;;;;4996740;28;20135;-84
2021/07/08 05:54:00;;;;;;;11.23;10.07;;;;;;;;;;5013563;28;20061;-83
2021/07/08 05:56:27;;;;;;;13.02;11.13;;;;;;;;;;5011925;28;20089;-84
2021/07/08 05:58:53;;;;;;;12.55;10.27;;;;;;;;;;5017896;28;20109;-84
2021/07/08 06:01:21;;;;;;;12.30;10.93;;;;;;;;;;5011561;28;20112;-84
2021/07/08 06:03:47;;;;;;;11.13;9.80;;;;;;;;;;5028588;28;20038;-84
2021/07/08 06:06:13;;;;;;;14.45;11.05;;;;;;;;;;5030067;28;20034;-84
2021/07/08 06:08:38;;;;;;;13.35;10.68;;;;;;;;;;5005067;28;20038;-84
2021/07/08 06:11:04;;;;;;;12.73;9.88;;;;;;;;;;5013661;28;20034;-84
2021/07/08 06:13:30;;;;;;;13.05;10.23;;;;;;;;;;4995914;28;20033;-84
2021/07/08 06:15:55;;;;;;;11.93;9.48;;;;;;;;;;5010028;28;20053;-84
2021/07/08 06:18:21;;;;;;;10.27;9.05;;;;;;;;;;5011560;28;20034;-84
2021/07/08 06:20:49;;;;;;;11.27;9.30;;;;;;;;;;5002592;28;20038;-84
2021/07/08 06:23:16;;;;;;;11.23;8.80;;;;;;;;;;5012944;28;20084;-84
2021/07/08 06:25:41;;;;;;;14.55;11.45;;;;;;;;;;5012308;28;20120;-84
2021/07/08 06:28:07;;;;;;;14.38;11.60;;;;;;;;;;5010189;28;20022;-84
2021/07/08 06:30:32;;;;;;;14.48;10.80;;;;;;;;;;5011592;28;20049;-84
2021/07/08 06:32:58;;;;;;;12.50;10.05;;;;;;;;;;4996548;28;20029;-84
2021/07/08 06:35:23;;;;;;;14.52;11.43;;;;;;;;;;5011555;28;20485;-84
2021/07/08 06:37:49;;;;;;;12.48;10.63;;;;;;;;;;5011904;28;20045;-84
2021/07/08 06:40:16;;;;;;;15.43;10.98;;;;;;;;;;5012373;28;20022;-83
2021/07/08 06:42:43;;;;;;;13.85;10.88;;;;;;;;;;4995712;28;20075;-84
2021/07/08 06:45:12;;;;;;;13.00;10.43;;;;;;;;;;5028262;28;20037;-84
2021/07/08 06:47:41;;;;;;;16.13;10.75;;;;;;;;;;4994891;28;20049;-84
2021/07/08 06:50:08;;;;;;;13.70;10.00;;;;;;;;;;5013130;28;20041;-84
2021/07/08 06:52:34;;;;;;;11.88;9.20;;;;;;;;;;5028020;28;20073;-84
2021/07/08 06:54:59;;;;;;;14.32;9.13;;;;;;;;;;5029608;28;20053;-84
2021/07/08 06:57:25;;;;;;;16.80;9.98;;;;;;;;;;4998645;28;20038;-84
2021/07/08 06:59:50;;;;;;;12.18;8.90;;;;;;;;;;4994629;28;20424;-84
2021/07/08 07:02:16;;;;;;;15.10;8.70;;;;;;;;;;4993786;28;20038;-85
2021/07/08 07:04:41;;;;;;;13.00;8.05;;;;;;;;;;4992597;28;20026;-84
2021/07/08 07:07:07;;;;;;;12.77;7.95;;;;;;;;;;5006656;28;20045;-84
2021/07/08 07:09:32;;;;;;;11.65;7.63;;;;;;;;;;4990998;28;20027;-84
2021/07/08 07:11:57;;;;;;;12.32;7.75;;;;;;;;;;5010578;28;20056;-84
2021/07/08 07:14:23;;;;;;;12.10;7.40;;;;;;;;;;5008230;28;20517;-84
2021/07/08 07:16:48;;;;;;;12.93;7.05;;;;;;;;;;4998391;28;20040;-84
2021/07/08 07:19:14;;;;;;;10.68;6.55;;;;;;;;;;5009643;28;20042;-84
2021/07/08 07:21:39;;;;;;;10.23;7.13;;;;;;;;;;4988564;28;20030;-84
2021/07/08 07:24:08;;;;;;;12.05;6.93;;;;;;;;;;5011261;28;20172;-84
2021/07/08 07:26:34;;;;;;;11.38;6.93;;;;;;;;;;5009939;28;20036;-84
2021/07/08 07:28:59;;;;;;;11.02;6.65;;;;;;;;;;5009765;28;20040;-85
2021/07/08 07:31:24;;;;;;;12.80;6.80;;;;;;;;;;5023124;28;20030;-85
2021/07/08 07:33:50;;;;;;;9.90;6.20;;;;;;;;;;5010537;28;20408;-85
2021/07/08 07:36:15;;;;;;;9.52;5.90;;;;;;;;;;5005462;28;20045;-84
2021/07/08 07:38:42;;;;;;;9.82;5.53;;;;;;;;;;5010220;28;20026;-84
2021/07/08 07:41:08;;;;;;;9.02;4.60;;;;;;;;;;5007480;28;20056;-84
2021/07/08 07:43:34;;;;;;;9.13;4.78;;;;;;;;;;5004874;28;20057;-84
2021/07/08 07:46:00;;;;;;;10.73;5.00;;;;;;;;;;4993989;28;20034;-84
2021/07/08 07:48:26;;;;;;;6.85;4.25;;;;;;;;;;5008024;28;20042;-84
2021/07/08 07:50:52;;;;;;;6.47;3.83;;;;;;;;;;5011887;28;20040;-84
2021/07/08 07:53:18;;;;;;;7.78;4.43;;;;;;;;;;4992394;28;20053;-84
2021/07/08 07:55:43;;;;;;;7.05;4.03;;;;;;;;;;5016116;28;20037;-84
2021/07/08 07:58:12;;;;;;;9.38;4.00;;;;;;;;;;5007816;28;20029;-84
2021/07/08 08:00:38;;;;;;;7.03;3.63;;;;;;;;;;5023363;28;20084;-85
2021/07/08 08:03:07;;;;;;;7.45;3.50;;;;;;;;;;5009987;28;20034;-85
2021/07/08 08:05:36;;;;;;;6.90;3.25;;;;;;;;;;5010067;28;20788;-85
2021/07/08 08:10:47;;;;;;;7.28;3.53;;;;;;;;;;5004677;28;20520;-85
2021/07/08 08:13:13;;;;;;;5.20;3.30;;;;;;;;;;5012514;28;20117;-85
2021/07/08 08:15:39;;;;;;;8.15;3.53;;;;;;;;;;4995850;28;20125;-85
2021/07/08 08:18:04;;;;;;;5.70;3.22;;;;;;;;;;5028118;28;20494;-85
2021/07/08 08:20:31;;;;;;;7.20;3.75;;;;;;;;;;5012012;28;20034;-85
2021/07/08 08:22:57;;;;;;;7.20;3.63;;;;;;;;;;5007814;28;21504;-85
2021/07/08 08:25:23;;;;;;;6.25;3.58;;;;;;;;;;5013759;28;20021;-85
2021/07/08 08:27:48;;;;;;;6.75;3.47;;;;;;;;;;5019914;28;20036;-85
2021/07/08 08:30:14;;;;;;;6.30;3.40;;;;;;;;;;5028788;28;20129;-85
2021/07/08 08:32:42;;;;;;;5.68;3.03;;;;;;;;;;5012245;28;20069;-86
2021/07/08 08:35:08;;;;;;;5.72;3.13;;;;;;;;;;5005619;28;20036;-85
2021/07/08 08:37:33;;;;;;;6.25;2.88;;;;;;;;;;5009991;28;20474;-85
2021/07/08 08:39:59;;;;;;;8.90;3.58;;;;;;;;;;4996312;28;20029;-86
2021/07/08 08:42:27;;;;;;;6.60;3.08;;;;;;;;;;5013248;28;20026;-85
2021/07/08 08:44:52;;;;;;;5.18;3.00;;;;;;;;;;5006458;28;20080;-85
2021/07/08 08:47:18;;;;;;;7.32;3.40;;;;;;;;;;5025366;28;20381;-85
2021/07/08 08:49:43;;;;;;;5.03;3.10;;;;;;;;;;5008604;28;20037;-85
2021/07/08 08:52:11;;;;;;;6.28;3.15;;;;;;;;;;5000050;28;20062;-85
2021/07/08 08:54:39;;;;;;;6.72;3.50;;;;;;;;;;5014048;28;20061;-85
2021/07/08 08:57:05;;;;;;;5.05;3.20;;;;;;;;;;5023720;28;20033;-86
2021/07/08 08:59:30;;;;;;;5.80;3.50;;;;;;;;;;5029216;28;20379;-85
2021/07/08 09:02:19;;;;;;;5.80;2.80;;;;;;;;;;4986697;28;20022;-85
2021/07/08 09:04:47;;;;;;;6.18;2.92;;;;;;;;;;5011577;28;20038;-85
2021/07/08 09:07:32;;;;;;;4.65;2.88;;;;;;;;;;5000008;28;20021;-85
2021/07/08 09:10:11;;;;;;;4.95;2.30;;;;;;;;;;5008326;28;20041;-85
2021/07/08 09:12:37;;;;;;;3.53;2.10;;;;;;;;;;5004079;28;20482;-85
2021/07/08 09:15:15;;;;;;;5.00;1.92;;;;;;;;;;5009266;28;20036;-85
2021/07/08 09:17:42;;;;;;;6.53;2.10;;;;;;;;;;5017366;28;20048;-85
2021/07/08 09:20:12;;;;;;;3.97;2.10;;;;;;;;;;5026861;28;20022;-85
2021/07/08 09:22:38;;;;;;;5.85;1.98;;;;;;;;;;5015846;28;20061;-85
2021/07/08 09:25:18;;;;;;;2.67;1.92;;;;;;;;;;5015040;28;20465;-85
2021/07/08 09:27:44;;;;;;;3.33;1.80;;;;;;;;;;5008581;28;20116;-85
2021/07/08 09:30:26;;;;;;;3.13;1.77;;;;;;;;;;5032327;28;20030;-85
2021/07/08 09:32:52;;;;;;;3.45;2.05;;;;;;;;;;5016395;28;20022;-85
2021/07/08 09:35:38;;;;;;;4.45;1.90;;;;;;;;;;5015588;28;20124;-85
2021/07/08 09:38:22;;;;;;;3.78;1.80;;;;;;;;;;5028263;28;20113;-84
2021/07/08 09:41:04;;;;;;;2.20;1.70;;;;;;;;;;5015781;28;20421;-84
2021/07/08 09:43:30;;;;;;;2.35;1.60;;;;;;;;;;5014999;28;20076;-84
2021/07/08 09:45:56;;;;;;;2.97;1.60;;;;;;;;;;4999213;28;20030;-84
2021/07/08 09:48:21;;;;;;;2.95;1.70;;;;;;;;;;5007622;28;20030;-84
2021/07/08 09:50:47;;;;;;;2.72;1.75;;;;;;;;;;5027260;28;20025;-84
2021/07/08 09:58:55;;;;;;;3.78;1.90;;;;;;;;;;5015103;28;20540;-84
2021/07/08 10:01:21;;;;;;;3.08;2.00;;;;;;;;;;5011964;28;20030;-84
2021/07/08 10:03:48;;;;;;;3.17;1.98;;;;;;;;;;5024357;28;20026;-84
2021/07/08 10:06:14;;;;;;;4.60;2.10;;;;;;;;;;5013400;28;20104;-84
2021/07/08 10:08:41;;;;;;;4.82;2.40;;;;;;;;;;4998136;28;20029;-84
2021/07/08 10:11:11;;;;;;;4.50;2.22;;;;;;;;;;5031124;28;20501;-84
2021/07/08 10:13:38;;;;;;;2.83;1.85;;;;;;;;;;5014460;28;20026;-85
2021/07/08 10:16:07;;;;;;;3.55;2.10;;;;;;;;;;5017934;28;20079;-84
2021/07/08 10:18:38;;;;;;;3.55;2.00;;;;;;;;;;5026194;28;20022;-84
2021/07/08 10:21:05;;;;;;;4.38;2.30;;;;;;;;;;5030599;28;20034;-84
2021/07/08 10:23:34;;;;;;;3.40;2.25;;;;;;;;;;5008418;28;20033;-84
2021/07/08 10:26:00;;;;;;;4.07;2.63;;;;;;;;;;5024729;28;20422;-85
2021/07/08 10:28:29;;;;;;;5.13;2.42;;;;;;;;;;4987437;28;20390;-85
2021/07/08 10:30:55;;;;;;;7.93;2.83;;;;;;;;;;5003775;28;20048;-86
2021/07/08 10:33:21;;;;;;;5.57;2.38;;;;;;;;;;5031131;28;20032;-86
2021/07/08 10:35:49;;;;;;;5.13;2.45;;;;;;;;;;5014157;28;20029;-86
2021/07/08 10:38:38;;;;;;;5.50;2.83;;;;;;;;;;5015693;28;20092;-85
2021/07/08 10:41:09;;;;;;;6.50;2.65;;;;;;;;;;5011717;28;20093;-86
2021/07/08 10:43:36;;;;;;;6.90;2.67;;;;;;;;;;5030642;28;20033;-86
2021/07/08 10:46:04;;;;;;;4.30;2.45;;;;;;;;;;5002899;28;20526;-86
2021/07/08 10:48:45;;;;;;;5.22;2.30;;;;;;;;;;5009303;28;20041;-86
2021/07/08 10:51:39;;;;;;;6.35;2.42;;;;;;;;;;5015132;28;20025;-86
2021/07/08 10:54:23;;;;;;;4.40;2.60;;;;;;;;;;5009799;28;20045;-85
2021/07/08 10:56:48;;;;;;;6.82;2.58;;;;;;;;;;5014876;28;20033;-85
2021/07/08 10:59:14;;;;;;;6.50;2.60;;;;;;;;;;4997329;28;20026;-86
2021/07/08 11:01:45;;;;;;;4.22;2.70;;;;;;;;;;5007704;28;20030;-85
2021/07/08 11:04:12;;;;;;;5.07;2.50;;;;;;;;;;4997069;28;20057;-85
2021/07/08 11:06:40;;;;;;;4.95;2.40;;;;;;;;;;4995419;28;20053;-85
2021/07/08 11:09:13;;;;;;;4.97;2.50;;;;;;;;;;5013481;28;20071;-85
2021/07/08 11:11:38;;;;;;;4.72;2.47;;;;;;;;;;5009158;28;20023;-85
2021/07/08 11:14:07;;;;;;;5.35;2.60;;;;;;;;;;5006077;28;20026;-85
2021/07/08 11:16:52;;;;;;;3.38;2.20;;;;;;;;;;5035760;28;20037;-85
2021/07/08 11:19:21;;;;;;;4.55;2.40;;;;;;;;;;5027058;28;20075;-85
2021/07/08 11:21:49;;;;;;;3.90;2.42;;;;;;;;;;5026944;28;20165;-85
2021/07/08 11:24:38;;;;;;;4.43;2.30;;;;;;;;;;5029075;28;20029;-85
2021/07/08 11:27:05;;;;;;;4.18;2.40;;;;;;;;;;4937883;28;44909;-84
2021/07/08 11:29:54;;;;;;;12.07;4.53;;;;;;;;;;4985400;28;58555;-85
2021/07/08 11:32:29;;;;;;;8.43;3.03;;;;;;;;;;5009426;28;20374;-85
2021/07/08 11:35:00;;;;;;;4.38;2.60;;;;;;;;;;5010626;28;20033;-85
2021/07/08 11:37:39;;;;;;;6.22;2.53;;;;;;;;;;5028874;28;20040;-85
2021/07/08 11:40:08;;;;;;;5.00;2.83;;;;;;;;;;5028868;28;20037;-85
2021/07/08 11:42:35;;;;;;;3.85;2.45;;;;;;;;;;5028621;28;20029;-85
2021/07/08 11:45:12;;;;;;;5.47;2.80;;;;;;;;;;5027722;28;20026;-85
2021/07/08 11:47:41;;;;;;;4.50;2.70;;;;;;;;;;5010579;28;20040;-85
2021/07/08 11:50:20;;;;;;;5.03;3.03;;;;;;;;;;5009295;28;20021;-85
2021/07/08 11:52:46;;;;;;;4.20;2.85;;;;;;;;;;5028568;28;20057;-84
2021/07/08 11:55:15;;;;;;;6.15;3.10;;;;;;;;;;5011045;28;20774;-84
2021/07/08 11:58:02;;;;;;;7.43;3.22;;;;;;;;;;4986504;28;20053;-84
2021/07/08 12:00:43;;;;;;;6.50;3.08;;;;;;;;;;5006042;28;20026;-85
2021/07/08 12:03:19;;;;;;;5.65;3.40;;;;;;;;;;5009478;28;20030;-85
2021/07/08 12:05:46;;;;;;;5.05;3.38;;;;;;;;;;5013013;28;20539;-85
2021/07/08 12:08:26;;;;;;;5.82;3.22;;;;;;;;;;5009963;28;20038;-85
2021/07/08 12:11:11;;;;;;;7.88;2.55;;;;;;;;;;5006630;28;20033;-85
2021/07/08 12:13:55;;;;;;;6.03;2.67;;;;;;;;;;5028606;28;20022;-85
2021/07/08 12:16:32;;;;;;;3.78;2.50;;;;;;;;;;5011456;28;20032;-84
2021/07/08 12:19:18;;;;;;;4.47;2.78;;;;;;;;;;5008688;28;20018;-84
2021/07/08 12:21:45;;;;;;;4.72;3.13;;;;;;;;;;5023316;28;20068;-84
2021/07/08 12:24:26;;;;;;;4.57;2.83;;;;;;;;;;5027869;28;20030;-85
2021/07/08 12:26:54;;;;;;;5.32;2.85;;;;;;;;;;5025812;28;20481;-85
2021/07/08 12:29:26;;;;;;;5.97;3.00;;;;;;;;;;5005866;28;20026;-85
2021/07/08 12:31:55;;;;;;;5.57;2.50;;;;;;;;;;5013143;28;20486;-85
2021/07/08 12:34:47;;;;;;;5.15;2.50;;;;;;;;;;5020479;28;20057;-85
2021/07/08 12:37:25;;;;;;;5.82;2.53;;;;;;;;;;5011476;28;20021;-85
2021/07/08 12:40:06;;;;;;;4.72;2.65;;;;;;;;;;5011205;28;20113;-85
2021/07/08 12:42:33;;;;;;;5.55;3.00;;;;;;;;;;5010761;28;20026;-85
2021/07/08 12:45:00;;;;;;;5.30;2.90;;;;;;;;;;5009470;28;20088;-85
2021/07/08 12:47:26;;;;;;;4.82;2.70;;;;;;;;;;5003944;28;20049;-85
2021/07/08 12:49:53;;;;;;;6.47;2.97;;;;;;;;;;5012242;28;20054;-85
2021/07/08 12:52:20;;;;;;;3.72;2.92;;;;;;;;;;5014422;28;20128;-85
2021/07/08 12:54:45;;;;;;;6.38;3.10;;;;;;;;;;5028365;28;20038;-85
2021/07/08 12:57:14;;;;;;;5.35;2.83;;;;;;;;;;5025236;28;20030;-85
2021/07/08 12:59:58;;;;;;;5.65;2.70;;;;;;;;;;5023722;28;20040;-85
2021/07/08 13:02:34;;;;;;;3.58;2.58;;;;;;;;;;5008274;28;20031;-85
2021/07/08 13:05:11;;;;;;;5.32;2.70;;;;;;;;;;5007030;28;20104;-85
2021/07/08 13:07:39;;;;;;;5.05;2.85;;;;;;;;;;5004976;28;20116;-84
2021/07/08 13:10:10;;;;;;;3.80;3.00;;;;;;;;;;5010952;28;20028;-84
2021/07/08 13:12:36;;;;;;;4.65;2.65;;;;;;;;;;5004842;28;20496;-84
2021/07/08 13:15:03;;;;;;;4.15;2.60;;;;;;;;;;5004724;28;20033;-84
2021/07/08 13:17:30;;;;;;;5.13;2.80;;;;;;;;;;5024229;28;20021;-84
2021/07/08 13:20:07;;;;;;;3.88;2.70;;;;;;;;;;5001967;28;20028;-84
2021/07/08 13:22:46;;;;;;;5.93;2.90;;;;;;;;;;5008798;28;20037;-84
2021/07/08 13:25:15;;;;;;;4.97;3.00;;;;;;;;;;5023076;28;20029;-84
2021/07/08 13:27:41;;;;;;;5.35;3.30;;;;;;;;;;5012576;28;20556;-84
2021/07/08 13:30:35;;;;;;;5.20;2.97;;;;;;;;;;5008838;28;20018;-84
2021/07/08 13:33:11;;;;;;;4.85;3.45;;;;;;;;;;5006341;28;20041;-84
2021/07/08 13:35:47;;;;;;;3.55;2.88;;;;;;;;;;5008389;28;20045;-84
2021/07/08 13:38:15;;;;;;;4.93;3.35;;;;;;;;;;5029300;28;20049;-84
2021/07/08 13:40:57;;;;;;;5.20;3.17;;;;;;;;;;5009563;28;20018;-84
2021/07/08 13:43:50;;;;;;;4.60;3.08;;;;;;;;;;5009063;28;20033;-84
2021/07/08 13:46:38;;;;;;;5.07;3.13;;;;;;;;;;5021053;28;20057;-84
2021/07/08 13:49:14;;;;;;;5.90;3.17;;;;;;;;;;5029050;28;20045;-84
2021/07/08 13:52:07;;;;;;;4.78;2.88;;;;;;;;;;5014306;28;20037;-84
2021/07/08 13:54:40;;;;;;;7.55;3.58;;;;;;;;;;5006402;28;20042;-84
2021/07/08 13:57:10;;;;;;;4.68;3.00;;;;;;;;;;5026801;28;20033;-84
2021/07/08 13:59:37;;;;;;;4.35;3.28;;;;;;;;;;5013883;28;20751;-83
2021/07/08 14:02:04;;;;;;;6.53;3.33;;;;;;;;;;5011930;28;20042;-84
2021/07/08 14:04:30;;;;;;;3.80;2.80;;;;;;;;;;4994756;28;20033;-83
2021/07/08 14:06:55;;;;;;;4.75;3.00;;;;;;;;;;5004492;28;20397;-83
2021/07/08 14:09:24;;;;;;;3.40;2.90;;;;;;;;;;5009905;28;20108;-83
2021/07/08 14:11:54;;;;;;;5.32;2.92;;;;;;;;;;5010350;28;20040;-83
2021/07/08 14:14:19;;;;;;;5.88;2.70;;;;;;;;;;5024261;28;20176;-83
2021/07/08 14:16:45;;;;;;;3.65;2.70;;;;;;;;;;5028534;28;20085;-83
2021/07/08 14:19:10;;;;;;;6.93;3.22;;;;;;;;;;5008074;28;20037;-83
2021/07/08 14:21:36;;;;;;;4.38;3.45;;;;;;;;;;5007647;28;20041;-83
2021/07/08 14:24:02;;;;;;;5.60;3.28;;;;;;;;;;5016272;28;20161;-83
2021/07/08 14:26:27;;;;;;;5.90;3.35;;;;;;;;;;5008858;28;20095;-83
2021/07/08 14:28:53;;;;;;;4.05;3.00;;;;;;;;;;5012483;28;20033;-83
2021/07/08 14:31:18;;;;;;;4.47;2.80;;;;;;;;;;4978521;28;20556;-83
2021/07/08 14:33:44;;;;;;;5.85;3.05;;;;;;;;;;4999687;28;20037;-83
2021/07/08 14:36:11;;;;;;;3.50;2.83;;;;;;;;;;5013303;28;20117;-83
2021/07/08 14:38:37;;;;;;;3.60;2.85;;;;;;;;;;5011328;28;20029;-83
2021/07/08 14:41:04;;;;;;;4.72;2.63;;;;;;;;;;5014921;28;20037;-83
2021/07/08 14:43:47;;;;;;;3.80;2.72;;;;;;;;;;5026897;28;20038;-83
2021/07/08 14:46:16;;;;;;;4.53;2.97;;;;;;;;;;5014232;28;20033;-83
2021/07/08 14:48:49;;;;;;;5.38;2.80;;;;;;;;;;5015903;28;20038;-83
2021/07/08 14:51:14;;;;;;;3.80;2.33;;;;;;;;;;5022937;28;20084;-83
2021/07/08 14:53:39;;;;;;;3.30;2.30;;;;;;;;;;5015096;28;20041;-83
2021/07/08 14:56:05;;;;;;;3.28;2.33;;;;;;;;;;4983784;28;20112;-82